sensor_id;sensor_type;location;lat;lon;timestamp;temperature;humidity
34434;DHT22;34290;48.562;13.384;2022-11-20T00:01:29;1.40;99.90
34434;DHT22;34290;48.562;13.384;2022-11-20T00:03:57;1.40;99.90
34434;DHT22;34290;48.562;13.384;2022-11-20T00:06:25;1.30;99.90
34434;DHT22;34290;48.562;13.384;2022-11-20T00:08:56;1.30;99.90
34434;DHT22;34290;48.562;13.384;2022-11-20T00:11:27;1.40;99.90
34434;DHT22;34290;48.562;13.384;2022-11-20T00:13:55;1.40;99.90
34434;DHT22;34290;48.562;13.384;2022-11-20T00:16:25;1.30;99.90
34434;DHT22;34290;48.562;13.384;2022-11-20T00:18:53;1.30;99.90
34434;DHT22;34290;48.562;13.384;2022-11-20T00:21:22;1.30;99.90
34434;DHT22;34290;48.562;13.384;2022-11-20T00:23:50;3.00;99.90
34434;DHT22;34290;48.562;13.384;2022-11-20T00:26:22;1.30;99.90
34434;DHT22;34290;48.562;13.384;2022-11-20T00:28:50;1.30;99.90
34434;DHT22;34290;48.562;13.384;2022-11-20T00:31:18;1.30;99.90
34434;DHT22;34290;48.562;13.384;2022-11-20T00:33:45;1.30;99.90
34434;DHT22;34290;48.562;13.384;2022-11-20T00:36:14;1.40;99.90
34434;DHT22;34290;48.562;13.384;2022-11-20T00:38:42;1.30;99.90
34434;DHT22;34290;48.562;13.384;2022-11-20T00:41:12;1.30;99.90
34434;DHT22;34290;48.562;13.384;2022-11-20T00:43:41;1.40;99.90
34434;DHT22;34290;48.562;13.384;2022-11-20T00:46:10;1.40;99.90
34434;DHT22;34290;48.562;13.384;2022-11-20T00:51:06;1.40;99.90
34434;DHT22;34290;48.562;13.384;2022-11-20T00:53:33;1.40;99.90
34434;DHT22;34290;48.562;13.384;2022-11-20T00:56:02;1.40;99.90
34434;DHT22;34290;48.562;13.384;2022-11-20T00:58:33;1.40;99.90
34434;DHT22;34290;48.562;13.384;2022-11-20T01:01:04;1.40;99.90
34434;DHT22;34290;48.562;13.384;2022-11-20T01:03:31;1.30;99.90
34434;DHT22;34290;48.562;13.384;2022-11-20T01:06:03;1.40;99.90
34434;DHT22;34290;48.562;13.384;2022-11-20T01:08:30;1.40;99.90
34434;DHT22;34290;48.562;13.384;2022-11-20T01:11:00;1.40;99.90
34434;DHT22;34290;48.562;13.384;2022-11-20T01:13:29;1.40;99.90
34434;DHT22;34290;48.562;13.384;2022-11-20T01:16:09;1.40;99.90
34434;DHT22;34290;48.562;13.384;2022-11-20T01:18:40;1.40;99.90
34434;DHT22;34290;48.562;13.384;2022-11-20T01:21:10;1.40;99.90
34434;DHT22;34290;48.562;13.384;2022-11-20T01:23:39;1.40;99.90
34434;DHT22;34290;48.562;13.384;2022-11-20T01:26:08;1.50;99.90
34434;DHT22;34290;48.562;13.384;2022-11-20T01:28:36;1.50;99.90
34434;DHT22;34290;48.562;13.384;2022-11-20T01:31:12;1.50;99.90
34434;DHT22;34290;48.562;13.384;2022-11-20T01:33:41;1.40;99.90
34434;DHT22;34290;48.562;13.384;2022-11-20T01:36:09;1.40;99.90
34434;DHT22;34290;48.562;13.384;2022-11-20T01:41:04;1.40;99.90
34434;DHT22;34290;48.562;13.384;2022-11-20T01:43:32;1.50;99.90
34434;DHT22;34290;48.562;13.384;2022-11-20T01:46:00;1.50;99.90
34434;DHT22;34290;48.562;13.384;2022-11-20T01:48:34;1.50;99.90
34434;DHT22;34290;48.562;13.384;2022-11-20T01:51:04;1.50;99.90
34434;DHT22;34290;48.562;13.384;2022-11-20T01:53:35;1.50;99.90
34434;DHT22;34290;48.562;13.384;2022-11-20T01:56:06;1.40;99.90
34434;DHT22;34290;48.562;13.384;2022-11-20T01:58:43;1.40;99.90
34434;DHT22;34290;48.562;13.384;2022-11-20T02:01:13;1.40;99.90
34434;DHT22;34290;48.562;13.384;2022-11-20T02:03:42;1.40;99.90
34434;DHT22;34290;48.562;13.384;2022-11-20T02:06:14;1.50;99.90
34434;DHT22;34290;48.562;13.384;2022-11-20T02:08:43;1.60;99.90
34434;DHT22;34290;48.562;13.384;2022-11-20T02:11:10;1.60;99.90
34434;DHT22;34290;48.562;13.384;2022-11-20T02:13:38;1.60;99.90
34434;DHT22;34290;48.562;13.384;2022-11-20T02:16:12;1.60;99.90
34434;DHT22;34290;48.562;13.384;2022-11-20T02:18:41;1.60;99.90
34434;DHT22;34290;48.562;13.384;2022-11-20T02:21:15;1.60;99.90
34434;DHT22;34290;48.562;13.384;2022-11-20T02:23:58;1.60;99.90
34434;DHT22;34290;48.562;13.384;2022-11-20T02:26:27;1.60;99.90
34434;DHT22;34290;48.562;13.384;2022-11-20T02:28:55;1.60;99.90
34434;DHT22;34290;48.562;13.384;2022-11-20T02:33:54;1.60;99.90
34434;DHT22;34290;48.562;13.384;2022-11-20T02:36:23;1.50;99.90
34434;DHT22;34290;48.562;13.384;2022-11-20T02:41:20;1.60;99.90
34434;DHT22;34290;48.562;13.384;2022-11-20T02:43:47;1.60;99.90
34434;DHT22;34290;48.562;13.384;2022-11-20T02:46:14;1.70;99.90
34434;DHT22;34290;48.562;13.384;2022-11-20T02:48:41;1.70;99.90
34434;DHT22;34290;48.562;13.384;2022-11-20T02:51:08;1.70;99.90
34434;DHT22;34290;48.562;13.384;2022-11-20T02:53:37;1.80;99.90
34434;DHT22;34290;48.562;13.384;2022-11-20T02:56:05;1.80;99.90
34434;DHT22;34290;48.562;13.384;2022-11-20T02:58:34;1.70;99.90
34434;DHT22;34290;48.562;13.384;2022-11-20T03:01:01;1.70;99.90
34434;DHT22;34290;48.562;13.384;2022-11-20T03:03:28;1.70;99.90
34434;DHT22;34290;48.562;13.384;2022-11-20T03:05:55;1.80;99.90
34434;DHT22;34290;48.562;13.384;2022-11-20T03:08:25;1.70;99.90
34434;DHT22;34290;48.562;13.384;2022-11-20T03:10:52;1.70;99.90
34434;DHT22;34290;48.562;13.384;2022-11-20T03:15:47;1.70;99.90
34434;DHT22;34290;48.562;13.384;2022-11-20T03:18:16;1.60;99.90
34434;DHT22;34290;48.562;13.384;2022-11-20T03:20:43;1.60;99.90
34434;DHT22;34290;48.562;13.384;2022-11-20T03:23:10;1.60;99.90
34434;DHT22;34290;48.562;13.384;2022-11-20T03:28:05;1.70;99.90
34434;DHT22;34290;48.562;13.384;2022-11-20T03:30:32;1.60;99.90
34434;DHT22;34290;48.562;13.384;2022-11-20T03:33:00;1.60;99.90
34434;DHT22;34290;48.562;13.384;2022-11-20T03:35:29;1.70;99.90
34434;DHT22;34290;48.562;13.384;2022-11-20T03:37:57;1.70;99.90
34434;DHT22;34290;48.562;13.384;2022-11-20T03:40:24;1.70;99.90
34434;DHT22;34290;48.562;13.384;2022-11-20T03:45:18;1.70;99.90
34434;DHT22;34290;48.562;13.384;2022-11-20T03:47:46;1.70;99.90
34434;DHT22;34290;48.562;13.384;2022-11-20T03:50:17;1.80;99.90
34434;DHT22;34290;48.562;13.384;2022-11-20T03:52:44;1.70;99.90
34434;DHT22;34290;48.562;13.384;2022-11-20T03:55:12;1.80;99.90
34434;DHT22;34290;48.562;13.384;2022-11-20T03:57:42;1.80;99.90
34434;DHT22;34290;48.562;13.384;2022-11-20T04:00:11;1.70;99.90
34434;DHT22;34290;48.562;13.384;2022-11-20T04:02:40;1.70;99.90
34434;DHT22;34290;48.562;13.384;2022-11-20T04:05:07;1.80;99.90
34434;DHT22;34290;48.562;13.384;2022-11-20T04:07:36;1.80;99.90
34434;DHT22;34290;48.562;13.384;2022-11-20T04:10:03;1.80;99.90
34434;DHT22;34290;48.562;13.384;2022-11-20T04:12:32;1.80;99.90
34434;DHT22;34290;48.562;13.384;2022-11-20T04:15:00;1.80;99.90
34434;DHT22;34290;48.562;13.384;2022-11-20T04:17:26;1.80;99.90
34434;DHT22;34290;48.562;13.384;2022-11-20T04:22:21;1.80;99.90
34434;DHT22;34290;48.562;13.384;2022-11-20T04:24:49;1.80;99.90
34434;DHT22;34290;48.562;13.384;2022-11-20T04:27:17;1.80;99.90
34434;DHT22;34290;48.562;13.384;2022-11-20T04:29:44;1.80;99.90
34434;DHT22;34290;48.562;13.384;2022-11-20T04:32:10;1.70;99.90
34434;DHT22;34290;48.562;13.384;2022-11-20T04:34:40;1.80;99.90
34434;DHT22;34290;48.562;13.384;2022-11-20T04:37:07;1.80;99.90
34434;DHT22;34290;48.562;13.384;2022-11-20T04:39:37;1.80;99.90
34434;DHT22;34290;48.562;13.384;2022-11-20T04:42:07;1.80;99.90
34434;DHT22;34290;48.562;13.384;2022-11-20T04:44:52;1.80;99.90
34434;DHT22;34290;48.562;13.384;2022-11-20T04:47:19;1.80;99.90
34434;DHT22;34290;48.562;13.384;2022-11-20T04:49:46;1.80;99.90
34434;DHT22;34290;48.562;13.384;2022-11-20T04:52:13;1.80;99.90
34434;DHT22;34290;48.562;13.384;2022-11-20T04:54:40;1.80;99.90
34434;DHT22;34290;48.562;13.384;2022-11-20T04:57:09;1.80;99.90
34434;DHT22;34290;48.562;13.384;2022-11-20T04:59:36;1.80;99.90
34434;DHT22;34290;48.562;13.384;2022-11-20T05:02:03;1.80;99.90
34434;DHT22;34290;48.562;13.384;2022-11-20T05:06:57;1.90;99.90
34434;DHT22;34290;48.562;13.384;2022-11-20T05:09:24;1.90;99.90
34434;DHT22;34290;48.562;13.384;2022-11-20T05:14:20;1.90;99.90
34434;DHT22;34290;48.562;13.384;2022-11-20T05:19:14;1.90;99.90
34434;DHT22;34290;48.562;13.384;2022-11-20T05:21:44;1.90;99.90
34434;DHT22;34290;48.562;13.384;2022-11-20T05:24:11;1.80;99.90
34434;DHT22;34290;48.562;13.384;2022-11-20T05:26:38;1.90;99.90
34434;DHT22;34290;48.562;13.384;2022-11-20T05:29:05;1.90;99.90
34434;DHT22;34290;48.562;13.384;2022-11-20T05:31:33;1.90;99.90
34434;DHT22;34290;48.562;13.384;2022-11-20T05:34:01;1.90;99.90
34434;DHT22;34290;48.562;13.384;2022-11-20T05:36:30;1.90;99.90
34434;DHT22;34290;48.562;13.384;2022-11-20T05:38:57;1.90;99.90
34434;DHT22;34290;48.562;13.384;2022-11-20T05:41:24;1.90;99.90
34434;DHT22;34290;48.562;13.384;2022-11-20T05:43:51;2.00;99.90
34434;DHT22;34290;48.562;13.384;2022-11-20T05:46:20;2.00;99.90
34434;DHT22;34290;48.562;13.384;2022-11-20T05:48:48;2.00;99.90
34434;DHT22;34290;48.562;13.384;2022-11-20T05:51:17;2.10;99.90
34434;DHT22;34290;48.562;13.384;2022-11-20T05:53:44;2.10;99.90
34434;DHT22;34290;48.562;13.384;2022-11-20T05:56:14;2.10;99.90
34434;DHT22;34290;48.562;13.384;2022-11-20T05:58:41;2.10;99.90
34434;DHT22;34290;48.562;13.384;2022-11-20T06:01:10;2.10;99.90
34434;DHT22;34290;48.562;13.384;2022-11-20T06:03:38;2.10;99.90
34434;DHT22;34290;48.562;13.384;2022-11-20T06:06:07;2.00;99.90
34434;DHT22;34290;48.562;13.384;2022-11-20T06:08:34;2.10;99.90
34434;DHT22;34290;48.562;13.384;2022-11-20T06:11:05;2.10;99.90
34434;DHT22;34290;48.562;13.384;2022-11-20T06:13:32;2.10;99.90
34434;DHT22;34290;48.562;13.384;2022-11-20T06:16:01;2.10;99.90
34434;DHT22;34290;48.562;13.384;2022-11-20T06:18:28;2.10;99.90
34434;DHT22;34290;48.562;13.384;2022-11-20T06:21:00;2.10;99.90
34434;DHT22;34290;48.562;13.384;2022-11-20T06:23:30;2.10;99.90
34434;DHT22;34290;48.562;13.384;2022-11-20T06:25:58;2.20;99.90
34434;DHT22;34290;48.562;13.384;2022-11-20T06:28:25;2.20;99.90
34434;DHT22;34290;48.562;13.384;2022-11-20T06:33:19;2.10;99.90
34434;DHT22;34290;48.562;13.384;2022-11-20T06:35:46;2.10;99.90
34434;DHT22;34290;48.562;13.384;2022-11-20T06:38:13;2.10;99.90
34434;DHT22;34290;48.562;13.384;2022-11-20T06:40:42;2.10;99.90
34434;DHT22;34290;48.562;13.384;2022-11-20T06:45:36;2.20;99.90
34434;DHT22;34290;48.562;13.384;2022-11-20T06:48:05;2.10;99.90
34434;DHT22;34290;48.562;13.384;2022-11-20T06:53:01;2.20;99.90
34434;DHT22;34290;48.562;13.384;2022-11-20T06:55:29;2.20;99.90
34434;DHT22;34290;48.562;13.384;2022-11-20T06:57:58;2.20;99.90
34434;DHT22;34290;48.562;13.384;2022-11-20T07:00:25;2.30;99.90
34434;DHT22;34290;48.562;13.384;2022-11-20T07:02:52;2.20;99.90
34434;DHT22;34290;48.562;13.384;2022-11-20T07:05:20;2.20;99.90
34434;DHT22;34290;48.562;13.384;2022-11-20T07:07:47;2.20;99.90
34434;DHT22;34290;48.562;13.384;2022-11-20T07:12:42;2.30;99.90
34434;DHT22;34290;48.562;13.384;2022-11-20T07:15:11;2.30;99.90
34434;DHT22;34290;48.562;13.384;2022-11-20T07:20:05;2.30;99.90
34434;DHT22;34290;48.562;13.384;2022-11-20T07:25:00;2.40;99.90
34434;DHT22;34290;48.562;13.384;2022-11-20T07:27:30;2.40;99.90
34434;DHT22;34290;48.562;13.384;2022-11-20T07:29:57;2.40;99.90
34434;DHT22;34290;48.562;13.384;2022-11-20T07:32:26;2.50;99.90
34434;DHT22;34290;48.562;13.384;2022-11-20T07:34:53;2.50;99.90
34434;DHT22;34290;48.562;13.384;2022-11-20T07:37:20;2.50;99.90
34434;DHT22;34290;48.562;13.384;2022-11-20T07:39:48;2.60;99.90
34434;DHT22;34290;48.562;13.384;2022-11-20T07:44:42;2.60;99.90
34434;DHT22;34290;48.562;13.384;2022-11-20T07:47:09;2.60;99.90
34434;DHT22;34290;48.562;13.384;2022-11-20T07:49:37;2.60;99.90
34434;DHT22;34290;48.562;13.384;2022-11-20T07:56:59;2.60;99.90
34434;DHT22;34290;48.562;13.384;2022-11-20T07:59:26;2.60;99.90
34434;DHT22;34290;48.562;13.384;2022-11-20T08:01:53;2.70;99.90
34434;DHT22;34290;48.562;13.384;2022-11-20T08:04:20;2.70;99.90
34434;DHT22;34290;48.562;13.384;2022-11-20T08:06:48;2.70;99.90
34434;DHT22;34290;48.562;13.384;2022-11-20T08:09:15;2.80;99.90
34434;DHT22;34290;48.562;13.384;2022-11-20T08:11:42;2.80;99.90
34434;DHT22;34290;48.562;13.384;2022-11-20T08:14:26;2.80;99.90
34434;DHT22;34290;48.562;13.384;2022-11-20T08:16:53;2.90;99.90
34434;DHT22;34290;48.562;13.384;2022-11-20T08:19:20;3.00;99.90
34434;DHT22;34290;48.562;13.384;2022-11-20T08:21:52;3.10;99.90
34434;DHT22;34290;48.562;13.384;2022-11-20T08:24:19;3.20;99.90
34434;DHT22;34290;48.562;13.384;2022-11-20T08:29:13;3.20;99.90
34434;DHT22;34290;48.562;13.384;2022-11-20T08:31:40;3.20;99.90
34434;DHT22;34290;48.562;13.384;2022-11-20T08:36:34;3.20;99.90
34434;DHT22;34290;48.562;13.384;2022-11-20T08:39:03;3.20;99.90
34434;DHT22;34290;48.562;13.384;2022-11-20T08:41:30;3.20;99.90
34434;DHT22;34290;48.562;13.384;2022-11-20T08:43:59;3.30;99.90
34434;DHT22;34290;48.562;13.384;2022-11-20T08:46:30;3.30;99.90
34434;DHT22;34290;48.562;13.384;2022-11-20T08:49:00;3.40;99.90
34434;DHT22;34290;48.562;13.384;2022-11-20T08:53:54;3.50;99.90
34434;DHT22;34290;48.562;13.384;2022-11-20T08:56:22;3.50;99.90
34434;DHT22;34290;48.562;13.384;2022-11-20T08:58:50;3.50;99.90
34434;DHT22;34290;48.562;13.384;2022-11-20T09:01:18;3.60;99.90
34434;DHT22;34290;48.562;13.384;2022-11-20T09:03:45;3.60;99.90
34434;DHT22;34290;48.562;13.384;2022-11-20T09:06:13;3.60;99.90
34434;DHT22;34290;48.562;13.384;2022-11-20T09:08:40;3.50;99.90
34434;DHT22;34290;48.562;13.384;2022-11-20T09:11:07;3.60;99.90
34434;DHT22;34290;48.562;13.384;2022-11-20T09:13:36;3.60;99.90
34434;DHT22;34290;48.562;13.384;2022-11-20T09:16:05;3.60;99.90
34434;DHT22;34290;48.562;13.384;2022-11-20T09:18:33;3.70;99.90
34434;DHT22;34290;48.562;13.384;2022-11-20T09:21:04;3.70;99.90
34434;DHT22;34290;48.562;13.384;2022-11-20T09:23:33;3.70;99.90
34434;DHT22;34290;48.562;13.384;2022-11-20T09:26:02;3.70;99.90
34434;DHT22;34290;48.562;13.384;2022-11-20T09:28:29;3.90;99.90
34434;DHT22;34290;48.562;13.384;2022-11-20T09:31:00;4.10;99.90
34434;DHT22;34290;48.562;13.384;2022-11-20T09:33:27;4.20;99.90
34434;DHT22;34290;48.562;13.384;2022-11-20T09:35:54;4.30;99.90
34434;DHT22;34290;48.562;13.384;2022-11-20T09:38:21;4.30;99.90
34434;DHT22;34290;48.562;13.384;2022-11-20T09:40:53;4.40;99.90
34434;DHT22;34290;48.562;13.384;2022-11-20T09:43:29;4.40;99.90
34434;DHT22;34290;48.562;13.384;2022-11-20T09:46:06;4.50;99.90
34434;DHT22;34290;48.562;13.384;2022-11-20T09:48:48;4.50;99.90
34434;DHT22;34290;48.562;13.384;2022-11-20T09:51:27;4.60;99.90
34434;DHT22;34290;48.562;13.384;2022-11-20T09:54:09;4.70;99.90
34434;DHT22;34290;48.562;13.384;2022-11-20T09:56:43;4.90;99.90
34434;DHT22;34290;48.562;13.384;2022-11-20T09:59:23;5.00;99.90
34434;DHT22;34290;48.562;13.384;2022-11-20T10:01:55;5.20;99.90
34434;DHT22;34290;48.562;13.384;2022-11-20T10:04:22;5.20;99.90
34434;DHT22;34290;48.562;13.384;2022-11-20T10:06:56;5.20;99.90
34434;DHT22;34290;48.562;13.384;2022-11-20T10:09:29;5.20;99.90
34434;DHT22;34290;48.562;13.384;2022-11-20T10:12:09;5.20;99.90
34434;DHT22;34290;48.562;13.384;2022-11-20T10:14:52;5.10;99.90
34434;DHT22;34290;48.562;13.384;2022-11-20T10:17:33;5.00;99.90
34434;DHT22;34290;48.562;13.384;2022-11-20T10:20:15;5.00;99.90
34434;DHT22;34290;48.562;13.384;2022-11-20T10:22:54;5.00;99.90
34434;DHT22;34290;48.562;13.384;2022-11-20T10:25:33;5.00;99.90
34434;DHT22;34290;48.562;13.384;2022-11-20T10:35:45;5.00;99.90
34434;DHT22;34290;48.562;13.384;2022-11-20T10:38:18;5.00;99.90
34434;DHT22;34290;48.562;13.384;2022-11-20T10:40:51;5.00;99.90
34434;DHT22;34290;48.562;13.384;2022-11-20T10:43:21;5.00;99.90
34434;DHT22;34290;48.562;13.384;2022-11-20T10:45:55;5.10;99.90
34434;DHT22;34290;48.562;13.384;2022-11-20T10:48:27;5.10;99.90
34434;DHT22;34290;48.562;13.384;2022-11-20T10:51:15;5.20;99.90
34434;DHT22;34290;48.562;13.384;2022-11-20T10:53:51;5.20;99.90
34434;DHT22;34290;48.562;13.384;2022-11-20T10:56:22;5.40;99.90
34434;DHT22;34290;48.562;13.384;2022-11-20T10:59:11;5.40;99.90
34434;DHT22;34290;48.562;13.384;2022-11-20T11:01:42;5.60;99.90
34434;DHT22;34290;48.562;13.384;2022-11-20T11:07:09;5.70;99.90
34434;DHT22;34290;48.562;13.384;2022-11-20T11:09:41;5.70;99.90
34434;DHT22;34290;48.562;13.384;2022-11-20T11:12:09;5.80;99.90
34434;DHT22;34290;48.562;13.384;2022-11-20T11:14:45;5.80;99.90
34434;DHT22;34290;48.562;13.384;2022-11-20T11:17:23;5.80;99.90
34434;DHT22;34290;48.562;13.384;2022-11-20T11:20:14;5.90;99.90
34434;DHT22;34290;48.562;13.384;2022-11-20T11:22:47;5.90;99.90
34434;DHT22;34290;48.562;13.384;2022-11-20T11:25:26;6.00;99.90
34434;DHT22;34290;48.562;13.384;2022-11-20T11:27:55;6.00;99.90
34434;DHT22;34290;48.562;13.384;2022-11-20T11:30:24;6.00;99.90
34434;DHT22;34290;48.562;13.384;2022-11-20T11:33:01;6.00;99.90
34434;DHT22;34290;48.562;13.384;2022-11-20T11:35:31;6.10;99.90
34434;DHT22;34290;48.562;13.384;2022-11-20T11:38:03;6.10;99.90
34434;DHT22;34290;48.562;13.384;2022-11-20T11:40:35;6.10;99.90
34434;DHT22;34290;48.562;13.384;2022-11-20T11:43:05;6.20;99.90
34434;DHT22;34290;48.562;13.384;2022-11-20T11:45:54;6.20;99.90
34434;DHT22;34290;48.562;13.384;2022-11-20T11:48:21;6.30;99.90
34434;DHT22;34290;48.562;13.384;2022-11-20T11:50:50;6.30;99.90
34434;DHT22;34290;48.562;13.384;2022-11-20T11:53:18;6.40;99.90
34434;DHT22;34290;48.562;13.384;2022-11-20T11:55:49;6.40;99.90
34434;DHT22;34290;48.562;13.384;2022-11-20T11:58:34;6.50;99.90
34434;DHT22;34290;48.562;13.384;2022-11-20T12:01:17;6.50;99.90
34434;DHT22;34290;48.562;13.384;2022-11-20T12:03:54;6.60;99.90
34434;DHT22;34290;48.562;13.384;2022-11-20T12:06:25;6.60;99.90
34434;DHT22;34290;48.562;13.384;2022-11-20T12:08:58;6.60;99.90
34434;DHT22;34290;48.562;13.384;2022-11-20T12:11:31;6.60;99.90
34434;DHT22;34290;48.562;13.384;2022-11-20T12:14:04;6.60;99.90
34434;DHT22;34290;48.562;13.384;2022-11-20T12:16:38;6.70;99.90
34434;DHT22;34290;48.562;13.384;2022-11-20T12:19:09;6.70;99.90
34434;DHT22;34290;48.562;13.384;2022-11-20T12:21:46;6.70;99.90
34434;DHT22;34290;48.562;13.384;2022-11-20T12:24:42;6.70;99.90
34434;DHT22;34290;48.562;13.384;2022-11-20T12:27:32;6.70;99.90
34434;DHT22;34290;48.562;13.384;2022-11-20T12:30:08;6.80;99.90
34434;DHT22;34290;48.562;13.384;2022-11-20T12:32:51;6.80;99.90
34434;DHT22;34290;48.562;13.384;2022-11-20T12:35:32;6.80;99.90
34434;DHT22;34290;48.562;13.384;2022-11-20T12:38:20;6.80;99.90
34434;DHT22;34290;48.562;13.384;2022-11-20T12:41:00;6.70;99.90
34434;DHT22;34290;48.562;13.384;2022-11-20T12:43:31;6.70;99.90
34434;DHT22;34290;48.562;13.384;2022-11-20T12:46:26;6.70;99.90
34434;DHT22;34290;48.562;13.384;2022-11-20T12:49:12;6.70;99.90
34434;DHT22;34290;48.562;13.384;2022-11-20T12:52:03;6.80;99.90
34434;DHT22;34290;48.562;13.384;2022-11-20T12:54:56;6.80;99.90
34434;DHT22;34290;48.562;13.384;2022-11-20T12:57:33;6.90;99.90
34434;DHT22;34290;48.562;13.384;2022-11-20T13:00:10;6.90;99.90
34434;DHT22;34290;48.562;13.384;2022-11-20T13:02:54;7.00;99.90
34434;DHT22;34290;48.562;13.384;2022-11-20T13:05:33;7.10;99.90
34434;DHT22;34290;48.562;13.384;2022-11-20T13:08:02;7.10;99.90
34434;DHT22;34290;48.562;13.384;2022-11-20T13:10:36;7.10;99.90
34434;DHT22;34290;48.562;13.384;2022-11-20T13:13:15;7.00;99.90
34434;DHT22;34290;48.562;13.384;2022-11-20T13:15:51;6.90;99.90
34434;DHT22;34290;48.562;13.384;2022-11-20T13:18:21;6.90;99.90
34434;DHT22;34290;48.562;13.384;2022-11-20T13:20:48;6.80;99.90
34434;DHT22;34290;48.562;13.384;2022-11-20T13:23:23;6.80;99.90
34434;DHT22;34290;48.562;13.384;2022-11-20T13:26:03;6.60;99.90
34434;DHT22;34290;48.562;13.384;2022-11-20T13:28:31;6.60;99.90
34434;DHT22;34290;48.562;13.384;2022-11-20T13:30:58;6.60;99.90
34434;DHT22;34290;48.562;13.384;2022-11-20T13:33:30;6.50;99.90
34434;DHT22;34290;48.562;13.384;2022-11-20T13:36:00;6.50;99.90
34434;DHT22;34290;48.562;13.384;2022-11-20T13:38:27;6.50;99.90
34434;DHT22;34290;48.562;13.384;2022-11-20T13:40:57;6.50;99.90
34434;DHT22;34290;48.562;13.384;2022-11-20T13:43:34;6.50;99.90
34434;DHT22;34290;48.562;13.384;2022-11-20T13:46:03;6.50;99.90
34434;DHT22;34290;48.562;13.384;2022-11-20T13:48:39;6.50;99.90
34434;DHT22;34290;48.562;13.384;2022-11-20T13:51:23;6.40;99.90
34434;DHT22;34290;48.562;13.384;2022-11-20T13:54:21;6.40;99.90
34434;DHT22;34290;48.562;13.384;2022-11-20T13:56:59;6.30;99.90
34434;DHT22;34290;48.562;13.384;2022-11-20T13:59:46;6.30;99.90
34434;DHT22;34290;48.562;13.384;2022-11-20T14:02:18;6.30;99.90
34434;DHT22;34290;48.562;13.384;2022-11-20T14:04:48;6.20;99.90
34434;DHT22;34290;48.562;13.384;2022-11-20T14:07:16;6.20;99.90
34434;DHT22;34290;48.562;13.384;2022-11-20T14:09:50;6.20;99.90
34434;DHT22;34290;48.562;13.384;2022-11-20T14:12:21;6.30;99.90
34434;DHT22;34290;48.562;13.384;2022-11-20T14:14:49;6.20;99.90
34434;DHT22;34290;48.562;13.384;2022-11-20T14:17:20;6.20;99.90
34434;DHT22;34290;48.562;13.384;2022-11-20T14:19:48;6.20;99.90
34434;DHT22;34290;48.562;13.384;2022-11-20T14:22:18;6.10;99.90
34434;DHT22;34290;48.562;13.384;2022-11-20T14:24:46;6.10;99.90
34434;DHT22;34290;48.562;13.384;2022-11-20T14:27:14;6.10;99.90
34434;DHT22;34290;48.562;13.384;2022-11-20T14:29:44;6.10;99.90
34434;DHT22;34290;48.562;13.384;2022-11-20T14:32:15;6.00;99.90
34434;DHT22;34290;48.562;13.384;2022-11-20T14:34:45;5.90;99.90
34434;DHT22;34290;48.562;13.384;2022-11-20T14:37:17;6.00;99.90
34434;DHT22;34290;48.562;13.384;2022-11-20T14:39:49;5.90;99.90
34434;DHT22;34290;48.562;13.384;2022-11-20T14:42:19;5.90;99.90
34434;DHT22;34290;48.562;13.384;2022-11-20T14:44:48;5.90;99.90
34434;DHT22;34290;48.562;13.384;2022-11-20T14:47:18;5.90;99.90
34434;DHT22;34290;48.562;13.384;2022-11-20T14:49:45;5.90;99.90
34434;DHT22;34290;48.562;13.384;2022-11-20T14:52:16;5.80;99.90
34434;DHT22;34290;48.562;13.384;2022-11-20T14:54:44;5.80;99.90
34434;DHT22;34290;48.562;13.384;2022-11-20T14:57:22;5.80;99.90
34434;DHT22;34290;48.562;13.384;2022-11-20T14:59:51;5.80;99.90
34434;DHT22;34290;48.562;13.384;2022-11-20T15:02:18;5.80;99.90
34434;DHT22;34290;48.562;13.384;2022-11-20T15:04:47;5.70;99.90
34434;DHT22;34290;48.562;13.384;2022-11-20T15:07:24;5.70;99.90
34434;DHT22;34290;48.562;13.384;2022-11-20T15:10:03;5.80;99.90
34434;DHT22;34290;48.562;13.384;2022-11-20T15:12:31;5.70;99.90
34434;DHT22;34290;48.562;13.384;2022-11-20T15:15:00;5.70;99.90
34434;DHT22;34290;48.562;13.384;2022-11-20T15:17:28;5.70;99.90
34434;DHT22;34290;48.562;13.384;2022-11-20T15:19:55;5.60;99.90
34434;DHT22;34290;48.562;13.384;2022-11-20T15:22:22;5.60;99.90
34434;DHT22;34290;48.562;13.384;2022-11-20T15:24:52;5.60;99.90
34434;DHT22;34290;48.562;13.384;2022-11-20T15:27:20;5.60;99.90
34434;DHT22;34290;48.562;13.384;2022-11-20T15:29:47;5.60;99.90
34434;DHT22;34290;48.562;13.384;2022-11-20T15:32:16;5.70;99.90
34434;DHT22;34290;48.562;13.384;2022-11-20T15:34:43;5.80;99.90
34434;DHT22;34290;48.562;13.384;2022-11-20T15:37:10;5.80;99.90
34434;DHT22;34290;48.562;13.384;2022-11-20T15:42:10;5.80;99.90
34434;DHT22;34290;48.562;13.384;2022-11-20T15:44:37;5.80;99.90
34434;DHT22;34290;48.562;13.384;2022-11-20T15:47:05;5.80;99.90
34434;DHT22;34290;48.562;13.384;2022-11-20T15:49:33;5.60;99.90
34434;DHT22;34290;48.562;13.384;2022-11-20T15:54:29;5.80;99.90
34434;DHT22;34290;48.562;13.384;2022-11-20T16:04:19;5.70;99.90
34434;DHT22;34290;48.562;13.384;2022-11-20T16:06:47;5.70;99.90
34434;DHT22;34290;48.562;13.384;2022-11-20T16:14:10;5.50;99.90
34434;DHT22;34290;48.562;13.384;2022-11-20T16:16:58;5.60;99.90
34434;DHT22;34290;48.562;13.384;2022-11-20T16:19:25;5.70;99.90
34434;DHT22;34290;48.562;13.384;2022-11-20T16:21:54;5.70;99.90
34434;DHT22;34290;48.562;13.384;2022-11-20T16:24:21;5.70;99.90
34434;DHT22;34290;48.562;13.384;2022-11-20T16:26:48;5.60;99.90
34434;DHT22;34290;48.562;13.384;2022-11-20T16:29:15;5.60;99.90
34434;DHT22;34290;48.562;13.384;2022-11-20T16:31:42;5.60;99.90
34434;DHT22;34290;48.562;13.384;2022-11-20T16:34:09;5.60;99.90
34434;DHT22;34290;48.562;13.384;2022-11-20T16:36:36;5.70;99.90
34434;DHT22;34290;48.562;13.384;2022-11-20T16:39:06;5.60;99.90
34434;DHT22;34290;48.562;13.384;2022-11-20T16:41:34;5.70;99.90
34434;DHT22;34290;48.562;13.384;2022-11-20T16:44:06;5.60;99.90
34434;DHT22;34290;48.562;13.384;2022-11-20T16:46:35;5.60;99.90
34434;DHT22;34290;48.562;13.384;2022-11-20T16:49:04;5.60;99.90
34434;DHT22;34290;48.562;13.384;2022-11-20T16:51:34;5.60;99.90
34434;DHT22;34290;48.562;13.384;2022-11-20T16:54:01;5.60;99.90
34434;DHT22;34290;48.562;13.384;2022-11-20T16:56:30;5.70;99.90
34434;DHT22;34290;48.562;13.384;2022-11-20T16:58:58;5.70;99.90
34434;DHT22;34290;48.562;13.384;2022-11-20T17:01:29;5.70;99.90
34434;DHT22;34290;48.562;13.384;2022-11-20T17:03:57;5.60;99.90
34434;DHT22;34290;48.562;13.384;2022-11-20T17:06:26;5.70;99.90
34434;DHT22;34290;48.562;13.384;2022-11-20T17:08:53;5.70;99.90
34434;DHT22;34290;48.562;13.384;2022-11-20T17:11:20;5.70;99.90
34434;DHT22;34290;48.562;13.384;2022-11-20T17:13:49;5.60;99.90
34434;DHT22;34290;48.562;13.384;2022-11-20T17:16:17;5.70;99.90